Time,TemperatureF,DewpointF,PressureIn,WindDirection,WindDirectionDegrees,WindSpeedMPH,WindSpeedGustMPH,Humidity,HourlyPrecipIn,Conditions,Clouds,dailyrainin,SoftwareType,DateUTC
2013-01-31 00:01:00,42.9,39.0,29.63,SSW,193,2.0,2.0,86,0.00,,,0.00,Wunderground v.1.15,2013-01-31 05:01:00,
2013-01-31 00:06:00,42.9,39.0,29.63,SW,229,1.0,7.0,86,0.00,,,0.00,Wunderground v.1.15,2013-01-31 05:06:00,
2013-01-31 00:16:00,42.5,38.6,29.62,SW,224,1.0,7.0,86,0.00,,,0.00,Wunderground v.1.15,2013-01-31 05:16:00,
2013-01-31 00:21:00,42.3,38.7,29.63,WSW,253,1.0,7.0,87,0.00,,,0.00,Wunderground v.1.15,2013-01-31 05:21:00,
2013-01-31 00:26:00,42.1,38.5,29.63,SE,136,1.0,7.0,87,0.00,,,0.00,Wunderground v.1.15,2013-01-31 05:26:00,
2013-01-31 00:31:00,42.1,38.8,29.64,SE,141,0.0,7.0,88,0.00,,,0.00,Wunderground v.1.15,2013-01-31 05:31:00,
2013-01-31 00:36:00,42.0,39.0,29.64,South,176,0.0,7.0,89,0.00,,,0.00,Wunderground v.1.15,2013-01-31 05:36:00,
2013-01-31 00:46:00,41.5,38.5,29.65,WSW,256,1.0,7.0,89,0.00,,,0.00,Wunderground v.1.15,2013-01-31 05:46:00,
2013-01-31 00:51:00,41.3,38.6,29.65,South,169,1.0,7.0,90,0.00,,,0.00,Wunderground v.1.15,2013-01-31 05:51:00,
2013-01-31 00:56:00,40.9,38.2,29.65,ESE,120,0.0,7.0,90,0.00,,,0.00,Wunderground v.1.15,2013-01-31 05:56:00,
2013-01-31 01:01:00,40.7,38.3,29.65,SE,124,0.0,7.0,91,0.00,,,0.00,Wunderground v.1.15,2013-01-31 06:01:00,
2013-01-31 01:06:00,40.3,37.0,29.65,SSW,205,1.0,7.0,88,0.00,,,0.00,Wunderground v.1.15,2013-01-31 06:06:00,
2013-01-31 01:15:00,39.9,35.8,29.66,South,169,1.0,7.0,85,0.00,,,0.00,Wunderground v.1.15,2013-01-31 06:15:00,
2013-01-31 01:20:00,39.6,35.5,29.66,SSE,150,1.0,7.0,85,0.00,,,0.00,Wunderground v.1.15,2013-01-31 06:20:00,
2013-01-31 01:25:00,39.3,35.5,29.66,SE,140,1.0,7.0,86,0.00,,,0.00,Wunderground v.1.15,2013-01-31 06:25:00,
2013-01-31 01:30:00,38.9,35.4,29.67,NE,55,0.0,7.0,87,0.00,,,0.00,Wunderground v.1.15,2013-01-31 06:30:00,
2013-01-31 01:35:00,38.5,35.3,29.67,SW,235,0.0,7.0,88,0.00,,,0.00,Wunderground v.1.15,2013-01-31 06:35:00,
2013-01-31 01:40:00,38.1,35.1,29.67,SW,225,0.0,7.0,89,0.00,,,0.00,Wunderground v.1.15,2013-01-31 06:40:00,
2013-01-31 01:46:00,37.6,34.7,29.68,SSW,208,0.0,7.0,89,0.00,,,0.00,Wunderground v.1.15,2013-01-31 06:46:00,
2013-01-31 01:51:00,37.4,34.2,29.68,SW,229,0.0,7.0,88,0.00,,,0.00,Wunderground v.1.15,2013-01-31 06:51:00,
2013-01-31 01:56:00,37.3,34.4,29.69,SE,144,0.0,7.0,89,0.00,,,0.00,Wunderground v.1.15,2013-01-31 06:56:00,
2013-01-31 02:01:00,37.2,34.0,29.69,SSE,154,0.0,7.0,88,0.00,,,0.00,Wunderground v.1.15,2013-01-31 07:01:00,
2013-01-31 02:06:00,37.1,34.2,29.69,SSW,195,0.0,7.0,89,0.00,,,0.00,Wunderground v.1.15,2013-01-31 07:06:00,
2013-01-31 02:11:00,36.9,34.0,29.69,South,188,0.0,7.0,89,0.00,,,0.00,Wunderground v.1.15,2013-01-31 07:11:00,
2013-01-31 02:21:00,36.5,33.3,29.70,West,262,0.0,7.0,88,0.00,,,0.00,Wunderground v.1.15,2013-01-31 07:21:00,
2013-01-31 02:26:00,36.6,32.8,29.71,SSW,207,0.0,7.0,86,0.00,,,0.00,Wunderground v.1.15,2013-01-31 07:26:00,
2013-01-31 02:31:00,36.8,32.7,29.71,SE,136,1.0,1.0,85,0.00,,,0.00,Wunderground v.1.15,2013-01-31 07:31:00,
2013-01-31 02:36:00,36.8,33.0,29.72,East,96,1.0,7.0,86,0.00,,,0.00,Wunderground v.1.15,2013-01-31 07:36:00,
2013-01-31 02:41:00,36.6,32.8,29.72,SSE,156,0.0,7.0,86,0.00,,,0.00,Wunderground v.1.15,2013-01-31 07:41:00,
2013-01-31 02:51:00,36.1,32.6,29.73,SSE,153,0.0,7.0,87,0.00,,,0.00,Wunderground v.1.15,2013-01-31 07:51:00,
2013-01-31 02:56:00,35.9,32.4,29.73,SSE,152,1.0,7.0,87,0.00,,,0.00,Wunderground v.1.15,2013-01-31 07:56:00,
2013-01-31 03:01:00,35.7,31.9,29.74,SSW,213,2.0,7.0,86,0.00,,,0.00,Wunderground v.1.15,2013-01-31 08:01:00,
2013-01-31 03:06:00,35.5,31.7,29.74,ESE,119,1.0,7.0,86,0.00,,,0.00,Wunderground v.1.15,2013-01-31 08:06:00,
2013-01-31 03:11:00,35.3,31.5,29.74,WSW,241,0.0,7.0,86,0.00,,,0.00,Wunderground v.1.15,2013-01-31 08:11:00,
2013-01-31 03:16:00,34.9,31.1,29.74,SW,225,0.0,7.0,86,0.00,,,0.00,Wunderground v.1.15,2013-01-31 08:16:00,
2013-01-31 03:26:00,34.4,30.9,29.75,SE,135,0.0,7.0,87,0.00,,,0.00,Wunderground v.1.15,2013-01-31 08:26:00,
2013-01-31 03:31:00,34.2,30.2,29.75,West,259,0.0,7.0,85,0.00,,,0.00,Wunderground v.1.15,2013-01-31 08:31:00,
2013-01-31 03:36:00,34.1,30.1,29.76,ENE,76,0.0,7.0,85,0.00,,,0.00,Wunderground v.1.15,2013-01-31 08:36:00,
2013-01-31 03:41:00,34.0,29.4,29.76,SW,221,0.0,7.0,83,0.00,,,0.00,Wunderground v.1.15,2013-01-31 08:41:00,
2013-01-31 03:46:00,33.8,29.5,29.76,WSW,245,0.0,7.0,84,0.00,,,0.00,Wunderground v.1.15,2013-01-31 08:46:00,
2013-01-31 03:51:00,33.6,28.1,29.77,NW,316,0.0,7.0,80,0.00,,,0.00,Wunderground v.1.15,2013-01-31 08:51:00,
2013-01-31 03:56:00,33.5,27.7,29.77,North,8,0.0,7.0,79,0.00,,,0.00,Wunderground v.1.15,2013-01-31 08:56:00,
2013-01-31 04:01:00,33.4,28.5,29.78,East,94,0.0,7.0,82,0.00,,,0.00,Wunderground v.1.15,2013-01-31 09:01:00,
2013-01-31 04:06:00,33.1,28.5,29.78,NW,311,0.0,7.0,83,0.00,,,0.00,Wunderground v.1.15,2013-01-31 09:06:00,
2013-01-31 04:11:00,33.0,28.4,29.78,East,101,1.0,7.0,83,0.00,,,0.00,Wunderground v.1.15,2013-01-31 09:11:00,
2013-01-31 04:16:00,32.8,28.5,29.79,ESE,115,1.0,7.0,84,0.00,,,0.00,Wunderground v.1.15,2013-01-31 09:16:00,
2013-01-31 04:21:00,32.6,27.7,29.79,NE,49,1.0,1.0,82,0.00,,,0.00,Wunderground v.1.15,2013-01-31 09:21:00,
2013-01-31 04:31:00,32.2,27.0,29.79,NNW,340,1.0,7.0,81,0.00,,,0.00,Wunderground v.1.15,2013-01-31 09:31:00,
2013-01-31 04:36:00,32.1,26.9,29.80,SSE,163,1.0,7.0,81,0.00,,,0.00,Wunderground v.1.15,2013-01-31 09:36:00,
2013-01-31 04:41:00,32.0,26.8,29.81,East,98,1.0,1.0,81,0.00,,,0.00,Wunderground v.1.15,2013-01-31 09:41:00,
2013-01-31 04:46:00,31.8,26.6,29.81,NW,322,1.0,7.0,81,0.00,,,0.00,Wunderground v.1.15,2013-01-31 09:46:00,
2013-01-31 04:51:00,31.8,26.3,29.81,NE,34,1.0,7.0,80,0.00,,,0.00,Wunderground v.1.15,2013-01-31 09:51:00,
2013-01-31 05:01:00,31.9,25.5,29.81,ESE,104,2.0,2.0,77,0.00,,,0.00,Wunderground v.1.15,2013-01-31 10:01:00,
2013-01-31 05:06:00,31.8,24.8,29.82,North,359,1.0,7.0,75,0.00,,,0.00,Wunderground v.1.15,2013-01-31 10:06:00,
2013-01-31 05:11:00,31.8,25.1,29.82,NNE,30,1.0,1.0,76,0.00,,,0.00,Wunderground v.1.15,2013-01-31 10:11:00,
2013-01-31 05:16:00,31.7,23.4,29.83,NNW,348,1.0,3.0,71,0.00,,,0.00,Wunderground v.1.15,2013-01-31 10:16:00,
2013-01-31 05:21:00,31.7,23.0,29.83,NE,41,3.0,3.0,70,0.00,,,0.00,Wunderground v.1.15,2013-01-31 10:21:00,
2013-01-31 05:26:00,31.5,23.2,29.83,NNE,21,4.0,14.0,71,0.00,,,0.00,Wunderground v.1.15,2013-01-31 10:26:00,
2013-01-31 05:36:00,31.3,22.6,29.84,NNW,332,3.0,7.0,70,0.00,,,0.00,Wunderground v.1.15,2013-01-31 10:36:00,
2013-01-31 05:41:00,31.1,22.1,29.84,East,99,2.0,2.0,69,0.00,,,0.00,Wunderground v.1.15,2013-01-31 10:41:00,
2013-01-31 05:46:00,30.9,22.9,29.85,SE,142,1.0,7.0,72,0.00,,,0.00,Wunderground v.1.15,2013-01-31 10:46:00,
2013-01-31 05:51:00,30.6,23.6,29.85,SSE,162,1.0,1.0,75,0.00,,,0.00,Wunderground v.1.15,2013-01-31 10:51:00,
2013-01-31 05:56:00,30.3,23.0,29.86,ESE,109,1.0,7.0,74,0.00,,,0.00,Wunderground v.1.15,2013-01-31 10:56:00,
2013-01-31 06:06:00,30.0,24.0,29.87,ESE,115,1.0,7.0,78,0.00,,,0.00,Wunderground v.1.15,2013-01-31 11:06:00,
2013-01-31 06:11:00,29.8,23.5,29.87,NE,51,1.0,1.0,77,0.00,,,0.00,Wunderground v.1.15,2013-01-31 11:11:00,
2013-01-31 06:16:00,29.7,23.4,29.88,SE,132,1.0,7.0,77,0.00,,,0.00,Wunderground v.1.15,2013-01-31 11:16:00,
2013-01-31 06:21:00,29.6,23.6,29.88,SE,134,0.0,7.0,78,0.00,,,0.00,Wunderground v.1.15,2013-01-31 11:21:00,
2013-01-31 06:26:00,29.4,23.4,29.88,SSE,149,0.0,7.0,78,0.00,,,0.00,Wunderground v.1.15,2013-01-31 11:26:00,
2013-01-31 06:31:00,29.3,23.6,29.88,North,5,1.0,1.0,79,0.00,,,0.00,Wunderground v.1.15,2013-01-31 11:31:00,
2013-01-31 06:41:00,29.1,22.8,29.90,NNE,30,0.0,7.0,77,0.00,,,0.00,Wunderground v.1.15,2013-01-31 11:41:00,
2013-01-31 06:46:00,29.1,21.8,29.90,SW,214,1.0,7.0,74,0.00,,,0.00,Wunderground v.1.15,2013-01-31 11:46:00,
2013-01-31 06:51:00,28.9,22.6,29.91,ESE,103,1.0,1.0,77,0.00,,,0.00,Wunderground v.1.15,2013-01-31 11:51:00,
2013-01-31 06:56:00,28.8,21.2,29.90,NE,42,0.0,7.0,73,0.00,,,0.00,Wunderground v.1.15,2013-01-31 11:56:00,
2013-01-31 07:01:00,28.8,22.2,29.91,SSE,152,0.0,7.0,76,0.00,,,0.00,Wunderground v.1.15,2013-01-31 12:01:00,
2013-01-31 07:11:00,28.4,22.7,29.93,SW,225,0.0,7.0,79,0.00,,,0.00,Wunderground v.1.15,2013-01-31 12:11:00,
2013-01-31 07:16:00,28.3,22.0,29.93,SW,234,0.0,7.0,77,0.00,,,0.00,Wunderground v.1.15,2013-01-31 12:16:00,
2013-01-31 07:21:00,28.2,21.3,29.94,SE,146,0.0,7.0,75,0.00,,,0.00,Wunderground v.1.15,2013-01-31 12:21:00,
2013-01-31 07:26:00,28.2,21.9,29.94,SSW,195,0.0,7.0,77,0.00,,,0.00,Wunderground v.1.15,2013-01-31 12:26:00,
2013-01-31 07:31:00,28.1,22.4,29.94,SSW,195,0.0,7.0,79,0.00,,,0.00,Wunderground v.1.15,2013-01-31 12:31:00,
2013-01-31 07:36:00,27.8,22.4,29.95,SSW,195,0.0,7.0,80,0.00,,,0.00,Wunderground v.1.15,2013-01-31 12:36:00,
2013-01-31 07:46:00,27.6,22.2,29.95,South,174,0.0,7.0,80,0.00,,,0.00,Wunderground v.1.15,2013-01-31 12:46:00,
2013-01-31 07:51:00,27.7,22.0,29.95,South,175,0.0,7.0,79,0.00,,,0.00,Wunderground v.1.15,2013-01-31 12:51:00,
2013-01-31 07:56:00,27.8,23.3,29.95,NE,37,0.0,7.0,83,0.00,,,0.00,Wunderground v.1.15,2013-01-31 12:56:00,
2013-01-31 08:01:00,28.0,23.8,29.95,ENE,58,0.0,7.0,84,0.00,,,0.00,Wunderground v.1.15,2013-01-31 13:01:00,
2013-01-31 08:06:00,28.0,22.3,29.95,East,87,0.0,7.0,79,0.00,,,0.00,Wunderground v.1.15,2013-01-31 13:06:00,
2013-01-31 08:15:00,28.5,22.2,29.97,East,87,0.0,7.0,77,0.00,,,0.00,Wunderground v.1.15,2013-01-31 13:15:00,
2013-01-31 08:20:00,28.8,22.2,29.97,West,281,0.0,7.0,76,0.00,,,0.00,Wunderground v.1.15,2013-01-31 13:20:00,
2013-01-31 08:26:00,29.2,21.9,29.97,ESE,102,0.0,7.0,74,0.00,,,0.00,Wunderground v.1.15,2013-01-31 13:26:00,
2013-01-31 08:31:00,29.4,22.1,29.97,ESE,113,0.0,7.0,74,0.00,,,0.00,Wunderground v.1.15,2013-01-31 13:31:00,
2013-01-31 08:36:00,29.6,22.3,29.98,ESE,118,0.0,7.0,74,0.00,,,0.00,Wunderground v.1.15,2013-01-31 13:36:00,
2013-01-31 08:41:00,29.7,22.1,29.98,South,169,0.0,7.0,73,0.00,,,0.00,Wunderground v.1.15,2013-01-31 13:41:00,
2013-01-31 08:46:00,29.8,22.2,29.98,SE,146,0.0,7.0,73,0.00,,,0.00,Wunderground v.1.15,2013-01-31 13:46:00,
2013-01-31 08:55:00,30.3,22.4,29.99,North,9,0.0,7.0,72,0.00,,,0.00,Wunderground v.1.15,2013-01-31 13:55:00,
2013-01-31 09:00:00,30.8,22.8,29.99,WSW,248,0.0,7.0,72,0.00,,,0.00,Wunderground v.1.15,2013-01-31 14:00:00,
2013-01-31 09:05:00,31.1,22.1,30.00,SE,144,0.0,7.0,69,0.00,,,0.00,Wunderground v.1.15,2013-01-31 14:05:00,
2013-01-31 09:11:00,31.5,22.5,29.99,NW,305,1.0,1.0,69,0.00,,,0.00,Wunderground v.1.15,2013-01-31 14:11:00,
2013-01-31 09:16:00,31.8,22.4,29.99,SSE,163,1.0,1.0,68,0.00,,,0.00,Wunderground v.1.15,2013-01-31 14:16:00,
2013-01-31 09:21:00,32.4,22.3,30.00,East,91,1.0,1.0,66,0.00,,,0.00,Wunderground v.1.15,2013-01-31 14:21:00,
2013-01-31 09:26:00,32.8,22.7,30.00,ESE,122,1.0,4.0,66,0.00,,,0.00,Wunderground v.1.15,2013-01-31 14:26:00,
2013-01-31 09:31:00,32.9,22.4,30.00,SE,131,1.0,1.0,65,0.00,,,0.00,Wunderground v.1.15,2013-01-31 14:31:00,
2013-01-31 09:36:00,33.2,22.3,30.00,SE,142,1.0,1.0,64,0.00,,,0.00,Wunderground v.1.15,2013-01-31 14:36:00,
2013-01-31 09:46:00,33.4,21.4,30.00,WSW,245,1.0,1.0,61,0.00,,,0.00,Wunderground v.1.15,2013-01-31 14:46:00,
2013-01-31 09:51:00,33.5,21.9,30.01,SSW,204,1.0,1.0,62,0.00,,,0.00,Wunderground v.1.15,2013-01-31 14:51:00,
2013-01-31 09:56:00,34.0,22.3,30.00,SE,145,1.0,2.0,62,0.00,,,0.00,Wunderground v.1.15,2013-01-31 14:56:00,
2013-01-31 10:01:00,34.4,22.7,30.01,SE,132,1.0,2.0,62,0.00,,,0.00,Wunderground v.1.15,2013-01-31 15:01:00,
2013-01-31 10:06:00,34.7,21.8,30.01,SE,146,1.0,3.0,59,0.00,,,0.00,Wunderground v.1.15,2013-01-31 15:06:00,
2013-01-31 10:11:00,34.7,22.2,30.00,NW,311,2.0,3.0,60,0.00,,,0.00,Wunderground v.1.15,2013-01-31 15:11:00,
2013-01-31 10:21:00,35.0,21.3,30.01,WSW,242,1.0,3.0,57,0.00,,,0.00,Wunderground v.1.15,2013-01-31 15:21:00,
2013-01-31 10:26:00,34.8,22.3,30.01,SE,124,2.0,3.0,60,0.00,,,0.00,Wunderground v.1.15,2013-01-31 15:26:00,
2013-01-31 10:31:00,34.8,21.1,30.01,North,5,3.0,3.0,57,0.00,,,0.00,Wunderground v.1.15,2013-01-31 15:31:00,
2013-01-31 10:36:00,34.8,21.5,30.01,WNW,289,3.0,3.0,58,0.00,,,0.00,Wunderground v.1.15,2013-01-31 15:36:00,
2013-01-31 10:41:00,35.2,21.1,30.02,NE,50,3.0,3.0,56,0.00,,,0.00,Wunderground v.1.15,2013-01-31 15:41:00,
2013-01-31 10:51:00,35.5,20.9,30.02,NNE,20,2.0,2.0,55,0.00,,,0.00,Wunderground v.1.15,2013-01-31 15:51:00,
2013-01-31 10:56:00,35.7,22.4,30.02,SE,129,2.0,3.0,58,0.00,,,0.00,Wunderground v.1.15,2013-01-31 15:56:00,
2013-01-31 11:01:00,36.0,20.5,30.01,North,354,2.0,3.0,53,0.00,,,0.00,Wunderground v.1.15,2013-01-31 16:01:00,
2013-01-31 11:06:00,35.9,19.5,30.02,NE,46,3.0,4.0,51,0.00,,,0.00,Wunderground v.1.15,2013-01-31 16:06:00,
2013-01-31 11:11:00,35.8,20.3,30.02,ENE,59,3.0,3.0,53,0.00,,,0.00,Wunderground v.1.15,2013-01-31 16:11:00,
2013-01-31 11:16:00,36.0,21.4,30.02,ESE,107,4.0,4.0,55,0.00,,,0.00,Wunderground v.1.15,2013-01-31 16:16:00,
2013-01-31 11:26:00,36.4,20.4,30.02,NE,51,3.0,6.0,52,0.00,,,0.00,Wunderground v.1.15,2013-01-31 16:26:00,
2013-01-31 11:31:00,37.2,22.9,30.03,ESE,117,2.0,3.0,56,0.00,,,0.00,Wunderground v.1.15,2013-01-31 16:31:00,
2013-01-31 11:36:00,37.2,20.7,30.03,NNE,26,2.0,3.0,51,0.00,,,0.00,Wunderground v.1.15,2013-01-31 16:36:00,
2013-01-31 11:41:00,36.9,19.0,30.04,East,96,2.0,3.0,48,0.00,,,0.00,Wunderground v.1.15,2013-01-31 16:41:00,
2013-01-31 11:46:00,36.7,18.8,30.04,East,83,3.0,3.0,48,0.00,,,0.00,Wunderground v.1.15,2013-01-31 16:46:00,
2013-01-31 11:56:00,37.1,18.2,30.03,NNW,333,2.0,3.0,46,0.00,,,0.00,Wunderground v.1.15,2013-01-31 16:56:00,
2013-01-31 12:01:00,37.2,19.3,30.03,SSE,157,3.0,3.0,48,0.00,,,0.00,Wunderground v.1.15,2013-01-31 17:01:00,
2013-01-31 12:06:00,37.2,18.8,30.03,NNW,347,4.0,4.0,47,0.00,,,0.00,Wunderground v.1.15,2013-01-31 17:06:00,
2013-01-31 12:11:00,37.1,19.2,30.03,North,1,4.0,4.0,48,0.00,,,0.00,Wunderground v.1.15,2013-01-31 17:11:00,
2013-01-31 12:16:00,37.4,20.0,30.04,NE,38,3.0,4.0,49,0.00,,,0.00,Wunderground v.1.15,2013-01-31 17:16:00,
2013-01-31 12:26:00,37.7,20.7,30.04,East,79,3.0,3.0,50,0.00,,,0.00,Wunderground v.1.15,2013-01-31 17:26:00,
2013-01-31 12:31:00,38.2,19.2,30.03,NNE,20,2.0,3.0,46,0.00,,,0.00,Wunderground v.1.15,2013-01-31 17:31:00,
2013-01-31 12:36:00,38.3,18.8,30.03,NW,307,2.0,3.0,45,0.00,,,0.00,Wunderground v.1.15,2013-01-31 17:36:00,
2013-01-31 12:41:00,38.6,19.6,30.03,NW,312,2.0,2.0,46,0.00,,,0.00,Wunderground v.1.15,2013-01-31 17:41:00,
2013-01-31 12:46:00,39.4,21.3,30.04,East,79,2.0,3.0,48,0.00,,,0.00,Wunderground v.1.15,2013-01-31 17:46:00,
2013-01-31 12:51:00,39.8,20.2,30.03,SSE,163,2.0,2.0,45,0.00,,,0.00,Wunderground v.1.15,2013-01-31 17:51:00,
2013-01-31 13:01:00,40.3,19.0,30.04,ESE,120,2.0,3.0,42,0.00,,,0.00,Wunderground v.1.15,2013-01-31 18:01:00,
2013-01-31 13:06:00,40.7,19.4,30.04,South,184,2.0,3.0,42,0.00,,,0.00,Wunderground v.1.15,2013-01-31 18:06:00,
2013-01-31 13:11:00,41.3,21.0,30.04,North,352,2.0,3.0,44,0.00,,,0.00,Wunderground v.1.15,2013-01-31 18:11:00,
2013-01-31 13:16:00,40.7,19.4,30.04,NE,46,3.0,4.0,42,0.00,,,0.00,Wunderground v.1.15,2013-01-31 18:16:00,
2013-01-31 13:26:00,40.2,19.5,30.04,NNE,19,3.0,4.0,43,0.00,,,0.00,Wunderground v.1.15,2013-01-31 18:26:00,
2013-01-31 13:31:00,40.0,18.7,30.04,NW,319,3.0,7.0,42,0.00,,,0.00,Wunderground v.1.15,2013-01-31 18:31:00,
2013-01-31 13:36:00,39.7,19.5,30.05,NNW,329,4.0,7.0,44,0.00,,,0.00,Wunderground v.1.15,2013-01-31 18:36:00,
2013-01-31 13:41:00,39.5,19.4,30.05,ENE,65,4.0,4.0,44,0.00,,,0.00,Wunderground v.1.15,2013-01-31 18:41:00,
2013-01-31 13:46:00,39.5,19.4,30.05,NW,326,4.0,5.0,44,0.00,,,0.00,Wunderground v.1.15,2013-01-31 18:46:00,
2013-01-31 13:56:00,39.4,19.8,30.05,SE,127,4.0,6.0,45,0.00,,,0.00,Wunderground v.1.15,2013-01-31 18:56:00,
2013-01-31 14:01:00,39.4,19.8,30.05,NNE,19,5.0,5.0,45,0.00,,,0.00,Wunderground v.1.15,2013-01-31 19:01:00,
2013-01-31 14:06:00,39.5,20.4,30.06,NE,43,4.0,7.0,46,0.00,,,0.00,Wunderground v.1.15,2013-01-31 19:06:00,
2013-01-31 14:11:00,39.5,19.4,30.06,ENE,61,5.0,8.0,44,0.00,,,0.00,Wunderground v.1.15,2013-01-31 19:11:00,
2013-01-31 14:16:00,39.1,19.5,30.07,NNW,329,5.0,8.0,45,0.00,,,0.00,Wunderground v.1.15,2013-01-31 19:16:00,
2013-01-31 14:26:00,39.2,20.1,30.07,NNE,21,4.0,5.0,46,0.00,,,0.00,Wunderground v.1.15,2013-01-31 19:26:00,
2013-01-31 14:31:00,39.2,19.6,30.07,ESE,110,4.0,4.0,45,0.00,,,0.00,Wunderground v.1.15,2013-01-31 19:31:00,
2013-01-31 14:36:00,38.9,19.3,30.07,NE,41,4.0,4.0,45,0.00,,,0.00,Wunderground v.1.15,2013-01-31 19:36:00,
2013-01-31 14:41:00,38.7,19.7,30.08,ENE,66,3.0,3.0,46,0.00,,,0.00,Wunderground v.1.15,2013-01-31 19:41:00,
2013-01-31 14:46:00,38.5,20.5,30.08,SE,129,2.0,3.0,48,0.00,,,0.00,Wunderground v.1.15,2013-01-31 19:46:00,
2013-01-31 14:56:00,38.3,18.3,30.08,NNE,23,4.0,4.0,44,0.00,,,0.00,Wunderground v.1.15,2013-01-31 19:56:00,
2013-01-31 15:01:00,38.3,18.3,30.08,NNW,329,4.0,4.0,44,0.00,,,0.00,Wunderground v.1.15,2013-01-31 20:01:00,
2013-01-31 15:06:00,38.3,19.8,30.08,NE,37,3.0,7.0,47,0.00,,,0.00,Wunderground v.1.15,2013-01-31 20:06:00,
2013-01-31 15:11:00,38.4,18.9,30.08,NE,38,4.0,4.0,45,0.00,,,0.00,Wunderground v.1.15,2013-01-31 20:11:00,
2013-01-31 15:16:00,38.7,18.1,30.08,NE,54,3.0,4.0,43,0.00,,,0.00,Wunderground v.1.15,2013-01-31 20:16:00,
2013-01-31 15:26:00,38.7,18.1,30.08,NNE,21,3.0,3.0,43,0.00,,,0.00,Wunderground v.1.15,2013-01-31 20:26:00,
2013-01-31 15:31:00,38.8,18.7,30.08,NW,311,3.0,3.0,44,0.00,,,0.00,Wunderground v.1.15,2013-01-31 20:31:00,
2013-01-31 15:36:00,38.6,18.0,30.09,North,6,4.0,6.0,43,0.00,,,0.00,Wunderground v.1.15,2013-01-31 20:36:00,
2013-01-31 15:41:00,38.7,18.6,30.09,East,86,4.0,6.0,44,0.00,,,0.00,Wunderground v.1.15,2013-01-31 20:41:00,
2013-01-31 15:46:00,38.7,18.6,30.09,NNE,28,4.0,6.0,44,0.00,,,0.00,Wunderground v.1.15,2013-01-31 20:46:00,
2013-01-31 15:56:00,38.9,18.3,30.10,South,187,2.0,3.0,43,0.00,,,0.00,Wunderground v.1.15,2013-01-31 20:56:00,
2013-01-31 16:01:00,38.7,18.1,30.09,North,352,3.0,3.0,43,0.00,,,0.00,Wunderground v.1.15,2013-01-31 21:01:00,
2013-01-31 16:06:00,38.7,17.5,30.10,ESE,117,3.0,3.0,42,0.00,,,0.00,Wunderground v.1.15,2013-01-31 21:06:00,
2013-01-31 16:11:00,38.7,19.2,30.10,NE,56,3.0,3.0,45,0.00,,,0.00,Wunderground v.1.15,2013-01-31 21:11:00,
2013-01-31 16:21:00,38.5,19.0,30.10,ENE,69,1.0,1.0,45,0.00,,,0.00,Wunderground v.1.15,2013-01-31 21:21:00,
2013-01-31 16:26:00,38.4,18.9,30.10,North,360,1.0,3.0,45,0.00,,,0.00,Wunderground v.1.15,2013-01-31 21:26:00,
2013-01-31 16:31:00,38.2,18.2,30.10,NW,316,1.0,3.0,44,0.00,,,0.00,Wunderground v.1.15,2013-01-31 21:31:00,
2013-01-31 16:36:00,38.1,17.5,30.11,WNW,289,2.0,3.0,43,0.00,,,0.00,Wunderground v.1.15,2013-01-31 21:36:00,
2013-01-31 16:41:00,38.1,19.1,30.11,North,354,3.0,5.0,46,0.00,,,0.00,Wunderground v.1.15,2013-01-31 21:41:00,
2013-01-31 16:46:00,38.1,17.5,30.11,WNW,287,3.0,5.0,43,0.00,,,0.00,Wunderground v.1.15,2013-01-31 21:46:00,
2013-01-31 16:56:00,37.9,18.4,30.11,NNW,345,1.0,3.0,45,0.00,,,0.00,Wunderground v.1.15,2013-01-31 21:56:00,
2013-01-31 17:01:00,37.7,19.8,30.11,SE,129,1.0,3.0,48,0.00,,,0.00,Wunderground v.1.15,2013-01-31 22:01:00,
2013-01-31 17:06:00,37.6,18.7,30.11,NE,54,1.0,6.0,46,0.00,,,0.00,Wunderground v.1.15,2013-01-31 22:06:00,
2013-01-31 17:11:00,37.7,20.2,30.11,WNW,293,1.0,3.0,49,0.00,,,0.00,Wunderground v.1.15,2013-01-31 22:11:00,
2013-01-31 17:21:00,37.2,20.7,30.11,SSE,158,1.0,6.0,51,0.00,,,0.00,Wunderground v.1.15,2013-01-31 22:21:00,
2013-01-31 17:26:00,37.2,19.3,30.12,NW,323,1.0,6.0,48,0.00,,,0.00,Wunderground v.1.15,2013-01-31 22:26:00,
2013-01-31 17:31:00,37.1,19.7,30.12,SSE,152,1.0,1.0,49,0.00,,,0.00,Wunderground v.1.15,2013-01-31 22:31:00,
2013-01-31 17:36:00,37.0,19.6,30.12,NW,317,1.0,3.0,49,0.00,,,0.00,Wunderground v.1.15,2013-01-31 22:36:00,
2013-01-31 17:41:00,36.9,19.0,30.12,East,86,0.0,3.0,48,0.00,,,0.00,Wunderground v.1.15,2013-01-31 22:41:00,
2013-01-31 17:51:00,36.5,18.2,30.12,NW,315,0.0,3.0,47,0.00,,,0.00,Wunderground v.1.15,2013-01-31 22:51:00,
2013-01-31 17:56:00,36.4,20.4,30.12,WSW,248,0.0,3.0,52,0.00,,,0.00,Wunderground v.1.15,2013-01-31 22:56:00,
2013-01-31 18:01:00,36.0,20.9,30.13,SW,218,0.0,3.0,54,0.00,,,0.00,Wunderground v.1.15,2013-01-31 23:01:00,
2013-01-31 18:06:00,35.4,20.4,30.13,SW,226,0.0,3.0,54,0.00,,,0.00,Wunderground v.1.15,2013-01-31 23:06:00,
2013-01-31 18:11:00,35.1,19.7,30.13,WSW,242,0.0,3.0,53,0.00,,,0.00,Wunderground v.1.15,2013-01-31 23:11:00,
2013-01-31 18:21:00,35.0,20.0,30.13,WSW,243,0.0,3.0,54,0.00,,,0.00,Wunderground v.1.15,2013-01-31 23:21:00,
2013-01-31 18:26:00,34.7,20.2,30.13,West,262,0.0,3.0,55,0.00,,,0.00,Wunderground v.1.15,2013-01-31 23:26:00,
2013-01-31 18:31:00,34.4,20.3,30.14,West,267,0.0,3.0,56,0.00,,,0.00,Wunderground v.1.15,2013-01-31 23:31:00,
2013-01-31 18:41:00,34.2,20.1,30.14,West,268,0.0,3.0,56,0.00,,,0.00,Wunderground v.1.15,2013-01-31 23:41:00,
2013-01-31 18:46:00,34.2,20.1,30.15,West,267,0.0,3.0,56,0.00,,,0.00,Wunderground v.1.15,2013-01-31 23:46:00,
2013-01-31 18:51:00,34.0,19.9,30.15,West,267,0.0,3.0,56,0.00,,,0.00,Wunderground v.1.15,2013-01-31 23:51:00,
2013-01-31 18:56:00,33.9,19.8,30.15,West,269,0.0,3.0,56,0.00,,,0.00,Wunderground v.1.15,2013-01-31 23:56:00,
2013-01-31 19:06:00,33.6,20.0,30.15,NW,319,0.0,3.0,57,0.00,,,0.00,Wunderground v.1.15,2013-02-01 00:06:00,
2013-01-31 19:11:00,33.3,20.5,30.15,NW,319,0.0,3.0,59,0.00,,,0.00,Wunderground v.1.15,2013-02-01 00:11:00,
2013-01-31 19:16:00,32.9,20.1,30.15,NW,319,0.0,3.0,59,0.00,,,0.00,Wunderground v.1.15,2013-02-01 00:16:00,
2013-01-31 19:21:00,32.8,19.6,30.15,WNW,283,0.0,3.0,58,0.00,,,0.00,Wunderground v.1.15,2013-02-01 00:21:00,
2013-01-31 19:26:00,32.8,19.6,30.15,WNW,282,0.0,3.0,58,0.00,,,0.00,Wunderground v.1.15,2013-02-01 00:26:00,
2013-01-31 19:36:00,32.5,19.7,30.16,WNW,283,0.0,3.0,59,0.00,,,0.00,Wunderground v.1.15,2013-02-01 00:36:00,
2013-01-31 19:41:00,32.5,19.7,30.16,WNW,283,0.0,3.0,59,0.00,,,0.00,Wunderground v.1.15,2013-02-01 00:41:00,
2013-01-31 19:46:00,32.4,20.4,30.16,West,278,0.0,3.0,61,0.00,,,0.00,Wunderground v.1.15,2013-02-01 00:46:00,
2013-01-31 19:56:00,32.1,20.9,30.16,West,276,0.0,3.0,63,0.00,,,0.00,Wunderground v.1.15,2013-02-01 00:56:00,
2013-01-31 20:01:00,32.0,20.8,30.16,WSW,243,0.0,3.0,63,0.00,,,0.00,Wunderground v.1.15,2013-02-01 01:01:00,
2013-01-31 20:06:00,32.0,20.4,30.17,WSW,243,0.0,3.0,62,0.00,,,0.00,Wunderground v.1.15,2013-02-01 01:06:00,
2013-01-31 20:11:00,32.0,20.8,30.17,West,269,0.0,3.0,63,0.00,,,0.00,Wunderground v.1.15,2013-02-01 01:11:00,
2013-01-31 20:21:00,32.0,20.1,30.17,West,271,0.0,3.0,61,0.00,,,0.00,Wunderground v.1.15,2013-02-01 01:21:00,
2013-01-31 20:26:00,32.1,19.4,30.16,SSE,165,0.0,3.0,59,0.00,,,0.00,Wunderground v.1.15,2013-02-01 01:26:00,
2013-01-31 20:31:00,32.1,20.5,30.17,West,276,0.0,3.0,62,0.00,,,0.00,Wunderground v.1.15,2013-02-01 01:31:00,
2013-01-31 20:36:00,31.9,19.6,30.16,West,274,0.0,3.0,60,0.00,,,0.00,Wunderground v.1.15,2013-02-01 01:36:00,
2013-01-31 20:46:00,31.6,20.1,30.16,West,276,0.0,3.0,62,0.00,,,0.00,Wunderground v.1.15,2013-02-01 01:46:00,
2013-01-31 20:51:00,31.6,20.1,30.17,West,276,0.0,3.0,62,0.00,,,0.00,Wunderground v.1.15,2013-02-01 01:51:00,
2013-01-31 20:56:00,31.7,20.5,30.17,West,276,0.0,3.0,63,0.00,,,0.00,Wunderground v.1.15,2013-02-01 01:56:00,
2013-01-31 21:01:00,31.5,21.1,30.17,SW,231,0.0,3.0,65,0.00,,,0.00,Wunderground v.1.15,2013-02-01 02:01:00,
2013-01-31 21:06:00,31.2,20.4,30.18,West,259,0.0,3.0,64,0.00,,,0.00,Wunderground v.1.15,2013-02-01 02:06:00,
2013-01-31 21:16:00,31.3,21.3,30.17,NW,311,0.0,3.0,66,0.00,,,0.00,Wunderground v.1.15,2013-02-01 02:16:00,
2013-01-31 21:21:00,31.1,20.7,30.17,WSW,253,0.0,3.0,65,0.00,,,0.00,Wunderground v.1.15,2013-02-01 02:21:00,
2013-01-31 21:26:00,31.1,20.7,30.18,WSW,239,0.0,3.0,65,0.00,,,0.00,Wunderground v.1.15,2013-02-01 02:26:00,
2013-01-31 21:31:00,31.0,21.0,30.18,WNW,301,0.0,3.0,66,0.00,,,0.00,Wunderground v.1.15,2013-02-01 02:31:00,
2013-01-31 21:41:00,31.3,20.5,30.17,ENE,68,0.0,3.0,64,0.00,,,0.00,Wunderground v.1.15,2013-02-01 02:41:00,
2013-01-31 21:46:00,31.7,20.9,30.17,South,170,1.0,3.0,64,0.00,,,0.00,Wunderground v.1.15,2013-02-01 02:46:00,
2013-01-31 21:51:00,31.7,21.3,30.17,SW,221,1.0,1.0,65,0.00,,,0.00,Wunderground v.1.15,2013-02-01 02:51:00,
2013-01-31 21:56:00,31.6,21.5,30.17,SW,224,0.0,3.0,66,0.00,,,0.00,Wunderground v.1.15,2013-02-01 02:56:00,
2013-01-31 22:06:00,32.1,21.3,30.17,SW,217,1.0,5.0,64,0.00,,,0.00,Wunderground v.1.15,2013-02-01 03:06:00,
2013-01-31 22:11:00,32.4,21.2,30.17,SW,235,1.0,1.0,63,0.00,,,0.00,Wunderground v.1.15,2013-02-01 03:11:00,
2013-01-31 22:16:00,32.4,21.6,30.17,WSW,256,1.0,2.0,64,0.00,,,0.00,Wunderground v.1.15,2013-02-01 03:16:00,
2013-01-31 22:26:00,32.8,21.6,30.17,West,267,2.0,3.0,63,0.00,,,0.00,Wunderground v.1.15,2013-02-01 03:26:00,
2013-01-31 22:31:00,32.8,21.2,30.17,West,269,1.0,1.0,62,0.00,,,0.00,Wunderground v.1.15,2013-02-01 03:31:00,
2013-01-31 22:36:00,32.9,20.9,30.16,West,267,1.0,3.0,61,0.00,,,0.00,Wunderground v.1.15,2013-02-01 03:36:00,
2013-01-31 22:41:00,33.1,21.1,30.16,SSE,163,1.0,1.0,61,0.00,,,0.00,Wunderground v.1.15,2013-02-01 03:41:00,
2013-01-31 22:51:00,32.9,21.3,30.16,SSE,147,1.0,3.0,62,0.00,,,0.00,Wunderground v.1.15,2013-02-01 03:51:00,
2013-01-31 22:56:00,32.8,21.6,30.16,SE,135,1.0,3.0,63,0.00,,,0.00,Wunderground v.1.15,2013-02-01 03:56:00,
2013-01-31 23:01:00,32.8,21.2,30.16,WSW,240,1.0,3.0,62,0.00,,,0.00,Wunderground v.1.15,2013-02-01 04:01:00,
2013-01-31 23:11:00,33.3,21.3,30.16,South,174,2.0,3.0,61,0.00,,,0.00,Wunderground v.1.15,2013-02-01 04:11:00,
2013-01-31 23:16:00,33.5,21.1,30.17,SW,219,2.0,3.0,60,0.00,,,0.00,Wunderground v.1.15,2013-02-01 04:16:00,
2013-01-31 23:21:00,33.6,21.2,30.16,ESE,122,2.0,3.0,60,0.00,,,0.00,Wunderground v.1.15,2013-02-01 04:21:00,
2013-01-31 23:31:00,33.7,21.3,30.17,East,99,2.0,3.0,60,0.00,,,0.00,Wunderground v.1.15,2013-02-01 04:31:00,
2013-01-31 23:36:00,33.9,21.5,30.17,WSW,245,2.0,3.0,60,0.00,,,0.00,Wunderground v.1.15,2013-02-01 04:36:00,
2013-01-31 23:41:00,34.0,21.6,30.17,South,175,3.0,3.0,60,0.00,,,0.00,Wunderground v.1.15,2013-02-01 04:41:00,
2013-01-31 23:46:00,33.9,21.9,30.17,SW,234,2.0,3.0,61,0.00,,,0.00,Wunderground v.1.15,2013-02-01 04:46:00,
2013-01-31 23:56:00,33.8,22.1,30.16,SW,218,3.0,3.0,62,0.00,,,0.00,Wunderground v.1.15,2013-02-01 04:56:00,